Latest Coastal Weather Observations for Barrow Island

IDW60701

Issued at 1:33 am WST Thursday 3 September 2026 (issued every 10 minutes, with the page automatically refreshed every 10 minutes)

About coastal observations | Map of coastal stations | Coastal observations for WA | Marine services | Other Formats
Station Details ID: 005094 Name: BARROW ISLAND AIRPORT Lat: -20.87 Lon: 115.41 Height: 6.4 m
Data from the previous 72 hours. | See also: Recent months at Barrow Island
Date/Time
WST
Wind Sea
Height
m
Swell Vis
km
Cloud Weather Temp
°C
Press
MSL
hPa
Rain since
9am
mm
Dir  Spd
kts
Gust
kts
Height
m
Period
s
Dir
03/01:30am SSW 15 18 - - - - - - - 24.1 1015.1 0.0
03/01:00am SW 13 16 - - - - - - - 23.6 1015.4 0.0
03/12:30am WSW 12 14 - - - - - - - 23.1 1015.6 0.0
03/12:00am W 10 12 - - - - - - - 22.5 1015.8 0.0
 
Date/Time
WST
Wind Sea
Height
m
Swell Vis
km
Cloud Weather Temp
°C
Press
MSL
hPa
Rain since
9am
mm
Dir  Spd
kts
Gust
kts
Height
m
Period
s
Dir
02/11:30pm W 9 11 - - - - - - - 22.6 1016.0 0.0
02/11:00pm W 10 13 - - - - - - - 22.6 1016.0 0.0
02/10:30pm W 11 13 - - - - - - - 22.6 1016.2 0.0
02/10:00pm W 13 16 - - - - - - - 22.7 1016.2 0.0
02/09:30pm W 13 17 - - - - - - - 22.7 1016.2 0.0
02/09:00pm W 12 16 - - - - - - - 22.8 1016.1 0.0
02/08:30pm W 11 13 - - - - - - - 22.7 1015.8 0.0
02/08:00pm W 11 14 - - - - - - - 22.9 1015.8 0.0
02/07:30pm W 12 15 - - - - - - - 23.2 1015.6 0.0
02/07:00pm W 12 15 - - - - - - - 23.3 1015.4 0.0
02/06:30pm W 11 15 - - - - - - - 23.6 1015.2 0.0
02/06:00pm W 13 18 - - - - - - - 24.3 1015.1 0.0
02/05:30pm W 14 17 - - - - - - - 25.5 1015.0 0.0
02/05:00pm W 12 15 - - - - - - - 26.6 1014.8 0.0
02/04:30pm W 12 15 - - - - - - - 27.3 1014.7 0.0
02/04:00pm WSW 13 16 - - - - - - - 27.9 1014.7 0.0
02/03:30pm WSW 12 15 - - - - - - - 28.3 1014.7 0.0
02/03:00pm WSW 13 17 - - - - - - - 28.4 1014.8 0.0
02/02:30pm WSW 12 14 - - - - - - - 28.9 1015.0 0.0
02/02:00pm WSW 11 14 - - - - - - - 28.7 1015.4 0.0
02/01:30pm SW 11 15 - - - - - - - 28.5 1015.8 0.0
02/01:00pm SW 10 12 - - - - - - - 27.1 1015.9 0.0
02/12:30pm SW 11 12 - - - - - - - 26.4 1016.4 0.0
02/12:00pm SW 11 13 - - - - - - - 26.0 1016.9 0.0
02/11:30am SW 11 13 - - - - - - - 25.6 1017.1 0.0
02/11:00am SSW 9 11 - - - - - - - 25.1 1017.3 0.0
02/10:30am SW 12 14 - - - - - - - 24.8 1017.4 0.0
02/10:00am SW 14 16 - - - - - - - 24.6 1017.5 0.0
02/09:30am SW 13 15 - - - - - - - 24.2 1017.9 0.0
02/09:00am SW 11 14 - - - - - - - 23.8 1018.1 0.0
02/08:30am SW 11 13 - - - - - - - 23.3 1018.1 0.0
02/08:00am SW 11 12 - - - - - - - 22.8 1018.1 0.0
02/07:30am SW 12 13 - - - - - - - 22.1 1018.0 0.0
02/07:00am SW 12 14 - - - - - - - 21.5 1017.8 0.0
02/06:30am SW 12 14 - - - - - - - 21.4 1017.6 0.0
02/06:00am SW 12 13 - - - - - - - 21.5 1017.4 0.0
02/05:30am SW 9 11 - - - - - - - 21.0 1017.3 0.0
02/05:00am WSW 9 10 - - - - - - - 21.0 1017.2 0.0
02/04:30am WSW 9 10 - - - - - - - 21.2 1017.1 0.0
02/04:00am WSW 9 10 - - - - - - - 21.3 1017.3 0.0
02/03:30am WSW 9 12 - - - - - - - 21.9 1017.4 0.0
02/03:00am SW 13 15 - - - - - - - 22.4 1017.4 0.0
02/02:30am SW 14 16 - - - - - - - 22.6 1017.5 0.0
02/02:00am SW 14 17 - - - - - - - 22.7 1017.8 0.0
02/01:30am SW 12 14 - - - - - - - 22.6 1017.8 0.0
02/01:00am SW 15 18 - - - - - - - 22.7 1017.9 0.0
02/12:30am SW 15 17 - - - - - - - 22.7 1018.1 0.0
02/12:00am SW 15 18 - - - - - - - 23.0 1018.3 0.0
 
Date/Time
WST
Wind Sea
Height
m
Swell Vis
km
Cloud Weather Temp
°C
Press
MSL
hPa
Rain since
9am
mm
Dir  Spd
kts
Gust
kts
Height
m
Period
s
Dir
01/11:30pm WSW 11 13 - - - - - - - 22.5 1018.3 0.0
01/11:00pm WSW 12 15 - - - - - - - 22.4 1018.3 0.0
01/10:30pm WSW 9 10 - - - - - - - 22.0 1018.2 0.0
01/10:00pm WSW 10 11 - - - - - - - 22.3 1018.3 0.0
01/09:30pm WSW 9 11 - - - - - - - 22.3 1018.3 0.0
01/09:00pm WSW 10 13 - - - - - - - 22.5 1018.2 0.0
01/08:30pm WSW 12 14 - - - - - - - 22.8 1018.1 0.0
01/08:00pm WSW 11 13 - - - - - - - 23.0 1017.8 0.0
01/07:30pm WSW 12 14 - - - - - - - 23.3 1017.5 0.0
01/07:00pm WSW 11 14 - - - - - - - 23.6 1017.1 0.0
01/06:30pm WSW 11 13 - - - - - - - 23.9 1016.8 0.0
01/06:00pm WSW 12 14 - - - - - - - 24.6 1016.6 0.0
01/05:30pm WSW 11 13 - - - - - - - 25.8 1016.6 0.0
01/05:00pm WSW 12 14 - - - - - - - 26.3 1016.5 0.0
01/04:30pm WSW 11 13 - - - - - - - 27.3 1016.5 0.0
01/04:00pm WSW 12 14 - - - - - - - 27.7 1016.4 0.0
01/03:30pm SW 12 15 - - - - - - - 27.6 1016.4 0.0
01/03:00pm SW 13 15 - - - - - - - 27.4 1016.5 0.0
01/02:30pm SW 12 14 - - - - - - - 27.3 1016.7 0.0
01/02:00pm SW 11 13 - - - - - - - 26.8 1017.0 0.0
01/01:30pm SSW 10 12 - - - - - - - 26.6 1017.2 0.0
01/01:00pm SSW 11 12 - - - - - - - 26.2 1017.4 0.0
01/12:30pm SSW 10 11 - - - - - - - 25.8 1017.8 0.0
01/12:00pm SSW 11 11 - - - - - - - 25.8 1018.2 0.0
01/11:30am S 10 11 - - - - - - - 25.6 1018.5 0.0
01/11:00am SSW 10 11 - - - - - - - 25.1 1018.7 0.0
01/10:30am SSW 10 12 - - - - - - - 24.8 1019.1 0.0
01/10:00am SSW 10 11 - - - - - - - 24.5 1019.3 0.0
01/09:30am S 11 12 - - - - - - - 24.0 1019.5 0.0
01/09:00am S 12 15 - - - - - - - 23.5 1019.5 0.0
01/08:30am S 14 16 - - - - - - - 23.3 1019.5 0.0
01/08:00am S 14 16 - - - - - - - 22.9 1019.5 0.0
01/07:30am S 13 15 - - - - - - - 22.4 1019.2 0.0
01/07:00am S 13 16 - - - - - - - 22.0 1019.1 0.0
01/06:30am S 15 16 - - - - - - - 21.8 1018.9 0.0
01/06:00am SSW 15 17 - - - - - - - 21.9 1018.7 0.0
01/05:30am SSW 15 18 - - - - - - - 21.9 1018.5 0.0
01/05:00am SSW 16 19 - - - - - - - 22.0 1018.3 0.0
01/04:30am SSW 16 18 - - - - - - - 22.1 1018.3 0.0
01/04:00am SSW 15 18 - - - - - - - 22.1 1018.4 0.0
01/03:30am SSW 15 18 - - - - - - - 22.2 1018.5 0.0
01/03:00am S 17 19 - - - - - - - 22.3 1018.7 0.0
01/02:30am S 15 18 - - - - - - - 22.5 1018.9 0.0
01/02:00am SSW 15 18 - - - - - - - 22.5 1018.9 0.0
01/01:30am SSW 16 18 - - - - - - - 22.6 1019.1 0.0
01/01:00am SSW 16 19 - - - - - - - 22.9 1019.2 0.0
01/12:30am SSW 16 20 - - - - - - - 22.9 1019.4 0.0
01/12:00am SSW 18 20 - - - - - - - 23.1 1019.6 0.0
 
Date/Time
WST
Wind Sea
Height
m
Swell Vis
km
Cloud Weather Temp
°C
Press
MSL
hPa
Rain since
9am
mm
Dir  Spd
kts
Gust
kts
Height
m
Period
s
Dir
31/11:30pm SSW 19 22 - - - - - - - 23.0 1019.6 0.0
31/11:00pm SW 17 21 - - - - - - - 23.1 1019.6 0.0
31/10:30pm SW 16 19 - - - - - - - 22.8 1019.7 0.0
31/10:00pm WSW 12 14 - - - - - - - 22.4 1019.7 0.0
31/09:30pm WSW 12 16 - - - - - - - 22.6 1019.9 0.0
31/09:00pm WSW 12 14 - - - - - - - 22.6 1019.8 0.0
31/08:30pm WSW 13 16 - - - - - - - 22.8 1019.6 0.0
31/08:00pm WSW 13 15 - - - - - - - 22.8 1019.4 0.0
31/07:30pm WSW 11 13 - - - - - - - 22.9 1019.1 0.0
31/07:00pm WSW 11 13 - - - - - - - 23.0 1019.0 0.0
31/06:30pm WSW 11 13 - - - - - - - 23.3 1018.6 0.0
31/06:00pm WSW 13 15 - - - - - - - 23.8 1018.3 0.0
31/05:30pm WSW 13 16 - - - - - - - 24.5 1018.0 0.0
31/05:00pm SW 12 13 - - - - - - - 25.2 1017.9 0.0
31/04:30pm SW 13 15 - - - - - - - 25.9 1017.8 0.0
31/04:00pm SW 10 13 - - - - - - - 26.4 1017.7 0.0
31/03:30pm SW 11 12 - - - - - - - 26.8 1017.8 0.0
31/03:00pm SW 11 13 - - - - - - - 26.7 1017.8 0.0
31/02:30pm SW 11 12 - - - - - - - 26.7 1018.0 0.0
31/02:00pm SSW 9 11 - - - - - - - 26.8 1018.3 0.0
31/01:30pm SSW 9 11 - - - - - - - 26.8 1018.5 0.0
31/01:00pm SSW 8 10 - - - - - - - 26.5 1018.7 0.0
31/12:30pm SSW 9 11 - - - - - - - 25.9 1019.0 0.0
31/12:00pm SSW 9 10 - - - - - - - 25.6 1019.1 0.0
31/11:30am S 8 9 - - - - - - - 25.5 1019.5 0.0
31/11:00am S 7 9 - - - - - - - 25.5 1019.7 0.0
31/10:30am S 8 9 - - - - - - - 25.8 1019.9 0.0
31/10:00am S 8 10 - - - - - - - 25.2 1020.0 0.0
31/09:30am S 9 11 - - - - - - - 24.6 1019.9 0.0
31/09:00am SSW 9 11 - - - - - - - 24.1 1019.8 0.0
31/08:30am S 9 10 - - - - - - - 23.7 1019.5 0.0
31/08:00am S 9 10 - - - - - - - 23.5 1019.4 0.0
31/07:30am S 11 12 - - - - - - - 22.6 1019.0 0.0
31/07:00am SSE 11 13 - - - - - - - 21.9 1018.6 0.0
31/06:30am S 11 13 - - - - - - - 21.6 1018.3 0.0
31/06:00am S 11 13 - - - - - - - 21.8 1018.0 0.0
31/05:30am SSW 10 11 - - - - - - - 21.8 1017.8 0.0
31/05:00am SSW 9 11 - - - - - - - 21.4 1017.7 0.0
31/04:30am SW 7 8 - - - - - - - 19.5 1017.5 0.0
31/04:00am WSW 6 6 - - - - - - - 19.2 1017.6 0.0
31/03:30am WSW 6 7 - - - - - - - 20.8 1017.7 0.0
31/03:00am WSW 5 7 - - - - - - - 20.7 1018.0 0.0
31/02:30am WSW 6 7 - - - - - - - 20.6 1018.0 0.0
31/02:00am SW 7 8 - - - - - - - 20.8 1018.1 0.0

Other formats

Comma delimited format used in spreadsheet applications
http://www.bom.gov.au/fwo/IDW60701/IDW60701.95304.axf

JavaScript Object Notation format (JSON) in row-major order
http://www.bom.gov.au/fwo/IDW60701/IDW60701.95304.json

Data quality

Most of these data are generated automatically and are frequently updated. Quality checks on data are not normally performed. It is possible for incorrect values to appear. Refer to information at About Latest Weather Observations and please check the disclaimer before using these data.